Time;durP1;ratioP1;P1;durP2;ratioP2;P2;SDS_P1;SDS_P2;PMS_P1;PMS_P2;Temp;Humidity;BMP_temperature;BMP_pressure;BME280_temperature;BME280_humidity;BME280_pressure;Samples;Min_cycle;Max_cycle;Signal;HPM_P1;HPM_P2
2021/01/08 00:00:09;;;;;;;0.40;0.40;;;2.80;96.50;;;7.14;76.35;101175.03;5039588;27;96934;-70
2021/01/08 00:02:41;;;;;;;0.70;0.70;;;2.70;96.50;;;7.10;76.50;101179.28;5018396;28;96716;-70
2021/01/08 00:05:12;;;;;;;0.65;0.50;;;2.70;96.50;;;7.15;76.28;101187.28;5006809;28;96866;-70
2021/01/08 00:07:41;;;;;;;1.45;0.80;;;2.70;96.50;;;7.12;76.84;101177.97;5020810;27;96748;-70
2021/01/08 00:10:10;;;;;;;0.60;0.55;;;2.70;96.50;;;7.13;77.28;101184.91;5018594;27;96704;-70
2021/01/08 00:12:38;;;;;;;0.63;0.28;;;2.70;96.50;;;7.08;76.93;101184.91;5005886;28;97475;-70
2021/01/08 00:15:07;;;;;;;0.55;0.55;;;2.70;96.50;;;7.14;76.15;101183.03;5026085;28;97636;-70
2021/01/08 00:17:36;;;;;;;0.55;0.55;;;2.70;96.50;;;7.20;76.29;101180.09;5020210;27;97095;-70
2021/01/08 00:20:06;;;;;;;2.03;1.80;;;2.70;96.50;;;7.23;76.70;101184.09;5002847;28;97474;-70
2021/01/08 00:22:35;;;;;;;0.32;0.32;;;2.70;96.50;;;7.17;76.34;101183.28;5019381;28;97781;-70
2021/01/08 00:25:06;;;;;;;1.90;1.50;;;2.70;96.50;;;6.96;76.66;101184.38;5007516;28;96739;-70
2021/01/08 00:27:34;;;;;;;0.45;0.45;;;2.70;96.50;;;6.98;77.63;101186.78;5016975;28;96676;-70
2021/01/08 00:30:06;;;;;;;0.22;0.22;;;2.70;96.50;;;6.99;77.01;101185.72;5018592;27;96821;-70
2021/01/08 00:32:35;;;;;;;;;;;2.70;96.50;;;6.95;77.47;101184.66;5025623;28;97623;-70
2021/01/08 00:35:08;;;;;;;0.70;0.70;;;2.70;96.50;;;7.03;77.34;101187.56;5018780;28;96909;-70
2021/01/08 00:37:38;;;;;;;0.47;0.47;;;2.70;96.50;;;6.95;77.63;101179.31;5005056;28;97306;-70
2021/01/08 00:40:14;;;;;;;5.13;0.60;;;2.70;96.50;;;6.97;77.84;101185.97;5019346;27;96913;-70
2021/01/08 00:42:41;;;;;;;0.30;0.30;;;2.70;96.50;;;7.04;77.15;101193.69;5014744;27;96690;-70
2021/01/08 00:45:11;;;;;;;0.35;0.20;;;2.70;96.50;;;6.94;77.43;101191.81;5023763;28;96827;-70
2021/01/08 00:47:39;;;;;;;0.40;0.40;;;2.70;96.60;;;6.95;77.02;101187.31;5015306;28;97139;-70
2021/01/08 00:50:10;;;;;;;1.65;0.60;;;2.70;96.60;;;6.94;76.94;101186.50;5025801;28;96776;-70
2021/01/08 00:52:38;;;;;;;0.68;0.68;;;2.70;96.50;;;6.96;77.32;101188.91;5015539;27;98074;-70
2021/01/08 00:55:08;;;;;;;1.00;0.98;;;2.70;96.50;;;7.03;76.85;101194.75;5018628;27;97473;-70
2021/01/08 00:57:45;;;;;;;0.30;0.30;;;2.70;96.50;;;7.00;77.10;101190.75;5023854;28;97182;-70
2021/01/08 01:00:15;;;;;;;1.10;1.10;;;2.70;96.50;;;7.06;76.70;101188.91;5019513;28;96717;-70
2021/01/08 01:02:45;;;;;;;0.98;0.70;;;2.70;96.50;;;6.96;76.66;101194.25;5017878;27;97826;-70
2021/01/08 01:05:13;;;;;;;0.60;0.60;;;2.70;96.50;;;6.99;77.14;101193.69;5023156;28;97682;-70
2021/01/08 01:07:40;;;;;;;1.85;1.75;;;2.70;96.50;;;7.03;76.98;101189.44;5021659;28;96715;-70
2021/01/08 01:10:10;;;;;;;0.70;0.70;;;2.70;96.50;;;7.04;76.80;101191.03;5017597;27;96810;-70
2021/01/08 01:12:38;;;;;;;2.47;1.45;;;2.70;96.50;;;6.98;76.93;101198.22;5014974;27;97028;-70
2021/01/08 01:15:08;;;;;;;1.90;1.30;;;2.60;96.50;;;7.07;76.92;101191.31;5021069;28;97827;-70
2021/01/08 01:17:41;;;;;;;0.20;0.20;;;2.70;96.50;;;7.02;77.28;101193.16;5023512;28;96769;-70
2021/01/08 01:20:12;;;;;;;0.45;0.40;;;2.70;96.50;;;6.96;76.80;101202.22;5017534;28;96913;-70
2021/01/08 01:22:40;;;;;;;0.50;0.50;;;2.60;96.50;;;6.97;76.22;101199.28;5014418;27;97957;-70
2021/01/08 01:25:10;;;;;;;1.75;0.90;;;2.70;96.50;;;6.99;76.57;101204.34;5017700;28;97920;-70
2021/01/08 01:27:38;;;;;;;0.28;0.28;;;2.70;96.50;;;6.98;76.27;101208.09;5016094;28;96881;-70
2021/01/08 01:30:10;;;;;;;0.35;0.35;;;2.60;96.50;;;6.96;77.48;101202.22;5016704;28;97567;-70
2021/01/08 01:32:37;;;;;;;0.15;0.15;;;2.60;96.50;;;6.97;76.91;101201.94;5014932;28;97189;-71
2021/01/08 01:35:07;;;;;;;1.08;0.57;;;2.60;96.50;;;6.97;76.71;101206.50;5019010;27;97663;-71
2021/01/08 01:37:35;;;;;;;2.80;1.13;;;2.60;96.50;;;6.99;76.40;101202.47;5005917;28;96864;-71
2021/01/08 01:40:06;;;;;;;0.20;0.20;;;2.70;96.50;;;7.05;76.24;101208.59;5018777;28;96814;-72
2021/01/08 01:42:34;;;;;;;1.52;1.08;;;2.60;96.50;;;6.95;76.82;101213.94;5018159;27;98052;-72
2021/01/08 01:45:08;;;;;;;0.52;0.52;;;2.60;96.50;;;6.93;77.87;101210.75;5017183;27;97221;-72
2021/01/08 01:47:36;;;;;;;0.40;0.40;;;2.60;96.50;;;6.94;77.49;101213.13;5016735;28;97158;-72
2021/01/08 01:50:09;;;;;;;0.20;0.20;;;2.60;96.50;;;6.86;77.04;101215.50;5007853;28;96870;-72
2021/01/08 01:52:38;;;;;;;;;;;2.60;96.50;;;6.88;77.34;101214.19;5025058;28;96945;-72
2021/01/08 01:55:08;;;;;;;0.10;0.10;;;2.60;96.50;;;6.85;77.80;101216.59;5024224;28;98886;-72
2021/01/08 01:57:35;;;;;;;0.50;0.50;;;2.70;96.60;;;6.92;77.56;101223.25;5007729;28;97306;-72
2021/01/08 02:00:08;;;;;;;0.32;0.32;;;2.70;96.60;;;6.93;77.20;101222.19;5023941;28;96897;-72
2021/01/08 02:02:47;;;;;;;0.30;0.30;;;2.70;96.60;;;6.92;77.35;101225.13;5018564;27;96846;-72
2021/01/08 02:05:18;;;;;;;0.20;0.20;;;2.70;96.60;;;6.93;77.52;101222.19;5022665;28;97757;-72
2021/01/08 02:07:55;;;;;;;2.75;1.20;;;2.70;96.60;;;7.02;77.33;101223.25;5022595;28;96716;-72
2021/01/08 02:10:30;;;;;;;0.95;0.35;;;2.70;96.60;;;6.99;76.88;101226.44;5015512;28;96834;-72
2021/01/08 02:13:02;;;;;;;0.40;0.40;;;2.70;96.50;;;6.95;77.56;101221.94;5022643;28;96995;-72
2021/01/08 02:15:33;;;;;;;0.63;0.63;;;2.70;96.60;;;6.89;77.59;101231.78;5018272;28;96668;-72
2021/01/08 02:18:04;;;;;;;0.40;0.40;;;2.70;96.60;;;6.90;78.03;101227.22;5016856;27;96712;-72
2021/01/08 02:20:34;;;;;;;0.38;0.38;;;2.70;96.60;;;6.91;77.50;101234.19;5015510;28;96841;-72
2021/01/08 02:23:14;;;;;;;0.32;0.32;;;2.70;96.50;;;6.92;77.69;101230.47;5014365;27;98721;-72
2021/01/08 02:25:44;;;;;;;0.30;0.30;;;2.70;96.60;;;6.91;77.21;101228.88;5029394;27;96782;-72
2021/01/08 02:28:24;;;;;;;0.82;0.82;;;2.70;96.60;;;6.99;77.35;101225.66;5023383;27;97125;-72
2021/01/08 02:30:53;;;;;;;0.70;0.70;;;2.70;96.60;;;7.01;77.39;101228.84;5010089;28;96700;-72
2021/01/08 02:33:23;;;;;;;0.82;0.57;;;2.70;96.50;;;7.02;77.18;101236.56;5014082;28;97651;-71
2021/01/08 02:35:51;;;;;;;1.27;1.17;;;2.70;96.50;;;7.05;76.77;101237.91;5012348;28;97833;-71
2021/01/08 02:38:22;;;;;;;0.15;0.15;;;2.70;96.60;;;7.05;77.07;101237.91;5023853;27;96766;-72
2021/01/08 02:40:52;;;;;;;0.30;0.30;;;2.70;96.60;;;7.06;77.36;101242.19;5020800;28;96862;-72
2021/01/08 02:43:24;;;;;;;0.38;0.38;;;2.70;96.50;;;7.08;77.11;101245.38;5015128;28;97941;-72
2021/01/08 02:45:52;;;;;;;1.13;0.57;;;2.70;96.80;;;7.15;76.38;101240.56;5012764;28;97742;-72
2021/01/08 02:48:21;;;;;;;0.20;0.20;;;2.70;96.60;;;7.04;76.72;101244.31;5036792;27;97100;-72
2021/01/08 02:50:49;;;;;;;0.98;0.98;;;2.70;96.60;;;7.05;76.81;101248.56;5013072;28;96935;-72
2021/01/08 02:53:22;;;;;;;0.30;0.30;;;2.70;96.60;;;6.98;76.99;101237.38;5013366;28;96980;-72
2021/01/08 02:55:59;;;;;;;0.75;0.75;;;2.70;96.50;;;7.00;77.09;101245.91;5014997;28;97735;-71
2021/01/08 02:58:33;;;;;;;0.50;0.50;;;2.70;96.50;;;7.06;77.03;101248.31;5016988;28;96734;-71
2021/01/08 03:01:04;;;;;;;0.63;0.63;;;2.70;96.50;;;7.10;77.33;101249.38;5019532;27;97281;-71
2021/01/08 03:03:32;;;;;;;0.40;0.40;;;2.70;96.50;;;7.09;76.77;101252.28;5006523;28;97995;-71
2021/01/08 03:06:04;;;;;;;1.67;0.90;;;2.70;96.50;;;7.12;77.02;101249.09;5016480;27;96592;-71
2021/01/08 03:08:34;;;;;;;;;;;2.70;96.50;;;7.19;76.59;101244.31;5013812;28;96646;-71
2021/01/08 03:11:11;;;;;;;0.32;0.32;;;2.70;96.50;;;7.22;76.98;101249.91;5018584;28;96868;-71
2021/01/08 03:13:40;;;;;;;0.20;0.20;;;2.70;96.50;;;7.26;76.19;101252.84;5018033;28;97978;-71
2021/01/08 03:16:08;;;;;;;1.52;1.30;;;2.70;96.50;;;7.17;77.00;101255.25;5025802;28;97424;-71
2021/01/08 03:18:36;;;;;;;0.25;0.25;;;2.70;96.50;;;7.14;77.04;101249.63;5006630;28;96832;-71
2021/01/08 03:21:04;;;;;;;0.22;0.22;;;2.70;96.50;;;7.23;76.94;101253.38;5018542;28;97451;-71
2021/01/08 03:23:32;;;;;;;0.20;0.20;;;2.70;96.60;;;7.10;76.66;101256.56;5015377;28;97841;-71
2021/01/08 03:26:00;;;;;;;5.10;1.20;;;2.80;96.60;;;7.19;76.50;101258.44;5017435;28;96746;-71
2021/01/08 03:28:32;;;;;;;0.17;0.17;;;2.70;96.50;;;7.16;76.63;101250.97;5015245;28;97459;-71
2021/01/08 03:31:00;;;;;;;1.15;0.70;;;2.80;96.60;;;7.17;76.38;101246.44;5026604;28;96746;-71
2021/01/08 03:33:30;;;;;;;0.50;0.50;;;2.80;96.60;;;7.28;76.13;101256.03;5017616;28;97757;-71
2021/01/08 03:35:58;;;;;;;2.00;0.77;;;2.80;96.60;;;7.29;76.86;101252.31;5018978;27;97294;-71
2021/01/08 03:38:25;;;;;;;0.45;0.45;;;2.70;96.50;;;7.29;76.28;101252.31;5018849;27;96790;-71
2021/01/08 03:40:53;;;;;;;0.70;0.70;;;2.70;96.50;;;7.25;75.76;101251.25;5014387;28;96704;-71
2021/01/08 03:43:20;;;;;;;0.63;0.57;;;2.70;96.50;;;7.27;76.44;101257.13;5019903;28;96833;-71
2021/01/08 03:45:49;;;;;;;0.75;0.75;;;2.70;96.50;;;7.28;76.30;101245.38;5017931;28;97243;-71
2021/01/08 03:48:16;;;;;;;0.63;0.63;;;2.70;96.50;;;7.11;76.53;101256.31;5027348;27;96645;-71
2021/01/08 03:50:44;;;;;;;1.10;0.60;;;2.70;96.50;;;6.99;77.16;101252.31;5010266;28;96882;-71
2021/01/08 03:53:12;;;;;;;0.70;0.70;;;2.70;96.50;;;6.98;76.67;101253.38;5017147;28;97108;-71
2021/01/08 03:55:40;;;;;;;0.88;0.85;;;2.70;96.50;;;7.00;77.49;101256.56;5015771;27;97588;-71
2021/01/08 03:58:08;;;;;;;0.52;0.52;;;2.70;96.50;;;7.02;77.09;101246.44;5016718;28;96812;-71
2021/01/08 04:00:35;;;;;;;0.25;0.25;;;2.70;96.50;;;6.99;76.85;101253.09;5027418;27;96822;-71
2021/01/08 04:03:04;;;;;;;0.57;0.57;;;2.70;96.50;;;6.98;76.74;101254.16;5017393;27;96762;-71
2021/01/08 04:05:32;;;;;;;0.32;0.32;;;2.70;96.50;;;7.05;76.29;101259.22;5017939;28;97669;-71
2021/01/08 04:08:00;;;;;;;1.20;1.10;;;2.70;96.50;;;7.04;76.70;101255.75;5016316;27;96730;-71
2021/01/08 04:10:31;;;;;;;0.32;0.32;;;2.70;96.50;;;6.99;77.14;101254.97;5026958;27;96961;-71
2021/01/08 04:12:59;;;;;;;1.75;1.27;;;2.70;96.50;;;7.00;77.14;101252.03;5025104;28;96760;-71
2021/01/08 04:15:26;;;;;;;0.20;0.20;;;2.70;96.50;;;7.23;76.58;101258.72;5020227;27;97693;-71
2021/01/08 04:17:54;;;;;;;0.35;0.35;;;2.70;96.50;;;7.04;76.73;101254.97;5017181;27;96699;-71
2021/01/08 04:20:23;;;;;;;0.20;0.20;;;2.60;96.50;;;7.00;76.33;101264.56;5017156;28;96733;-71
2021/01/08 04:22:50;;;;;;;0.25;0.25;;;2.70;96.50;;;6.98;76.19;101259.47;5017551;27;97848;-71
2021/01/08 04:25:18;;;;;;;0.80;0.75;;;2.60;96.50;;;6.95;76.61;101259.22;5015471;27;97985;-71
2021/01/08 04:27:46;;;;;;;5.97;2.08;;;2.60;96.50;;;6.91;77.17;101258.94;5015354;28;96869;-71
2021/01/08 04:30:16;;;;;;;0.10;0.10;;;2.60;96.50;;;6.89;77.43;101257.59;5022763;28;96867;-71
2021/01/08 04:32:44;;;;;;;0.28;0.28;;;2.60;96.50;;;6.85;77.37;101259.19;5016522;28;96601;-71
2021/01/08 04:35:12;;;;;;;2.10;0.68;;;2.60;96.50;;;6.82;77.89;101265.06;5021558;28;97683;-71
2021/01/08 04:37:40;;;;;;;0.52;0.52;;;2.60;96.50;;;6.82;77.15;101273.84;5017400;27;96816;-71
2021/01/08 04:40:10;;;;;;;1.30;0.85;;;2.60;96.50;;;6.87;76.94;101273.84;5016597;28;97537;-71
2021/01/08 04:42:38;;;;;;;1.25;0.40;;;2.60;96.50;;;6.90;77.36;101272.50;5016630;28;96827;-71
2021/01/08 04:45:12;;;;;;;0.45;0.45;;;2.60;96.60;;;6.85;76.56;101269.84;5017907;27;97641;-71
2021/01/08 04:47:40;;;;;;;0.32;0.32;;;2.60;96.50;;;6.82;77.71;101278.38;5008881;28;96774;-71
2021/01/08 04:50:10;;;;;;;0.77;0.75;;;2.60;96.50;;;6.71;77.70;101268.75;5026060;28;97109;-71
2021/01/08 04:52:38;;;;;;;1.20;0.60;;;2.60;96.50;;;6.74;77.96;101277.00;5016798;27;96688;-71
2021/01/08 04:55:09;;;;;;;1.25;1.10;;;2.60;96.50;;;6.78;78.20;101287.94;5016977;28;97997;-71
2021/01/08 04:57:39;;;;;;;0.40;0.40;;;2.60;96.60;;;6.82;77.89;101286.34;5016680;28;96688;-71
2021/01/08 05:00:09;;;;;;;0.28;0.28;;;2.60;96.60;;;6.82;77.77;101289.00;5025041;27;97120;-71
2021/01/08 05:02:37;;;;;;;0.30;0.30;;;2.60;96.60;;;6.84;78.09;101281.56;5018598;27;97884;-71
2021/01/08 05:05:08;;;;;;;0.30;0.30;;;2.60;96.60;;;6.79;78.13;101281.56;5014640;28;96746;-71
2021/01/08 05:07:35;;;;;;;2.55;1.13;;;2.60;96.60;;;6.78;77.80;101283.44;5023878;27;96701;-71
2021/01/08 05:10:12;;;;;;;0.57;0.57;;;2.60;96.60;;;6.85;77.97;101285.81;5017162;27;96633;-71
2021/01/08 05:12:41;;;;;;;0.75;0.75;;;2.60;96.50;;;6.79;77.87;101292.22;5014668;27;96882;-71
2021/01/08 05:15:14;;;;;;;0.20;0.20;;;2.60;96.50;;;6.77;77.21;101291.69;5015367;28;97194;-71
2021/01/08 05:17:43;;;;;;;1.00;0.90;;;2.60;96.50;;;6.74;77.35;101289.53;5026318;28;96794;-71
2021/01/08 05:20:13;;;;;;;0.52;0.45;;;2.60;96.50;;;6.79;77.10;101286.88;5018528;28;97078;-71
2021/01/08 05:22:41;;;;;;;1.35;0.90;;;2.60;96.50;;;6.76;77.81;101290.88;5020045;28;97308;-71
2021/01/08 05:25:13;;;;;;;0.95;0.80;;;2.60;96.50;;;6.81;77.81;101292.75;5025540;28;97556;-71
2021/01/08 05:27:40;;;;;;;0.40;0.40;;;2.60;96.60;;;6.84;77.25;101294.88;5020632;28;96670;-71
2021/01/08 05:30:24;;;;;;;0.80;0.80;;;2.60;96.50;;;6.78;77.11;101293.28;5022520;28;97016;-71
2021/01/08 05:33:03;;;;;;;0.88;0.88;;;2.60;96.50;;;6.80;77.11;101297.28;5022019;27;97795;-71
2021/01/08 05:35:34;;;;;;;0.25;0.25;;;2.60;96.50;;;6.75;77.48;101302.56;5039828;27;96738;-71
2021/01/08 05:38:07;;;;;;;0.60;0.60;;;2.50;96.50;;;6.80;77.11;101304.47;5018464;28;97091;-71
2021/01/08 05:40:41;;;;;;;0.60;0.60;;;2.50;96.50;;;6.84;76.64;101310.84;5015931;28;96881;-71
2021/01/08 05:43:10;;;;;;;0.30;0.30;;;2.50;96.50;;;6.84;77.16;101302.88;5017689;28;96814;-71
2021/01/08 05:45:37;;;;;;;2.53;0.55;;;2.50;96.50;;;6.82;77.06;101313.00;5017289;27;97313;-71
2021/01/08 05:48:10;;;;;;;0.43;0.43;;;2.50;96.50;;;6.78;77.42;101315.41;5023878;28;96783;-71
2021/01/08 05:50:38;;;;;;;1.15;0.75;;;2.50;96.50;;;6.79;77.52;101316.19;5015797;28;96680;-71
2021/01/08 05:53:10;;;;;;;1.52;1.13;;;2.60;96.60;;;6.80;78.08;101312.44;5025553;28;96831;-71
2021/01/08 05:55:42;;;;;;;0.90;0.90;;;2.60;96.60;;;6.79;78.04;101316.19;5023954;27;97214;-71
2021/01/08 05:58:20;;;;;;;0.15;0.15;;;2.50;96.50;;;6.83;77.38;101323.38;5020666;28;96829;-71
2021/01/08 06:00:58;;;;;;;0.20;0.20;;;2.60;96.60;;;6.78;77.15;101318.06;5013976;28;96712;-71
2021/01/08 06:03:31;;;;;;;0.20;0.20;;;2.60;96.60;;;6.78;77.42;101320.72;5017814;28;97212;-71
2021/01/08 06:06:02;;;;;;;1.13;0.52;;;2.60;96.50;;;6.80;77.31;101323.91;5021837;28;96709;-71
2021/01/08 06:08:33;;;;;;;1.17;1.13;;;2.60;96.60;;;6.79;77.75;101327.66;5014730;28;96762;-71
2021/01/08 06:11:04;;;;;;;2.25;0.50;;;2.60;96.50;;;6.80;77.01;101331.09;5017361;27;96904;-71
2021/01/08 06:13:35;;;;;;;0.45;0.45;;;2.60;96.50;;;6.83;76.88;101322.56;5023642;28;97791;-71
2021/01/08 06:16:06;;;;;;;3.40;0.88;;;2.60;96.80;;;6.83;77.12;101333.22;5016503;27;96664;-71
2021/01/08 06:18:37;;;;;;;1.40;0.70;;;2.60;96.50;;;6.86;76.80;101330.03;5017960;27;96626;-71
2021/01/08 06:21:09;;;;;;;0.77;0.40;;;2.60;96.50;;;6.83;77.19;101333.22;5021623;27;96920;-71
2021/01/08 06:23:40;;;;;;;0.40;0.40;;;2.50;96.50;;;6.84;77.03;101337.50;5023297;28;97337;-71
2021/01/08 06:26:15;;;;;;;0.20;0.20;;;2.50;96.50;;;6.86;76.45;101338.03;5015258;28;97704;-71
2021/01/08 06:28:44;;;;;;;0.52;0.52;;;2.60;96.50;;;6.91;76.49;101346.06;5023829;27;97240;-71
2021/01/08 06:31:28;;;;;;;0.40;0.40;;;2.60;96.50;;;6.93;77.42;101338.59;5016474;28;97214;-71
2021/01/08 06:33:58;;;;;;;0.30;0.30;;;2.60;96.60;;;6.88;77.45;101344.72;5016010;28;97810;-71
2021/01/08 06:36:28;;;;;;;0.57;0.57;;;2.60;96.60;;;6.86;76.65;101348.69;5024738;28;96839;-71
2021/01/08 06:38:59;;;;;;;0.95;0.47;;;2.50;96.50;;;6.85;77.13;101341.75;5012899;27;97323;-71
2021/01/08 06:41:31;;;;;;;0.17;0.17;;;2.60;96.60;;;6.85;77.44;101353.22;5022426;28;96661;-71
2021/01/08 06:44:04;;;;;;;0.20;0.20;;;2.60;96.50;;;6.97;76.51;101355.66;5017296;27;96817;-71
2021/01/08 06:46:37;;;;;;;1.80;1.05;;;2.60;96.50;;;7.13;76.74;101360.75;5019871;28;97641;-71
2021/01/08 06:49:08;;;;;;;0.63;0.63;;;2.60;96.50;;;7.12;76.20;101355.69;5027197;28;96788;-71
2021/01/08 06:51:39;;;;;;;1.13;1.13;;;2.60;96.50;;;7.12;76.56;101356.50;5018618;27;96864;-71
2021/01/08 06:54:09;;;;;;;0.90;0.90;;;2.60;96.50;;;7.03;76.51;101362.59;5019870;28;97457;-71
2021/01/08 06:56:40;;;;;;;0.80;0.80;;;2.60;96.60;;;7.08;76.83;101363.41;5027328;28;97496;-71
2021/01/08 06:59:10;;;;;;;0.52;0.52;;;2.60;96.50;;;7.06;76.15;101370.88;5024071;28;96640;-71
2021/01/08 07:01:54;;;;;;;2.42;0.60;;;2.60;96.50;;;7.07;75.92;101376.97;5014545;28;96846;-71
2021/01/08 07:04:26;;;;;;;0.30;0.30;;;2.60;96.50;;;6.99;76.81;101372.19;5018980;28;97706;-71
2021/01/08 07:06:58;;;;;;;0.60;0.40;;;2.60;96.50;;;7.04;76.92;101385.50;5026601;28;97729;-71
2021/01/08 07:09:33;;;;;;;0.50;0.50;;;2.60;96.50;;;7.10;76.79;101381.78;5023084;28;97142;-71
2021/01/08 07:12:05;;;;;;;1.02;0.43;;;2.60;96.50;;;6.99;76.78;101394.28;5022051;27;96778;-71
2021/01/08 07:14:35;;;;;;;0.68;0.68;;;2.60;96.50;;;6.99;76.47;101396.16;5019219;27;97229;-70
2021/01/08 07:17:09;;;;;;;0.70;0.63;;;2.60;96.60;;;7.02;76.80;101395.63;5019577;28;97726;-71
2021/01/08 07:19:41;;;;;;;0.20;0.20;;;2.60;96.50;;;7.05;76.59;101389.78;5028442;28;96854;-71
2021/01/08 07:22:17;;;;;;;1.35;1.20;;;2.60;96.50;;;7.01;77.32;101396.69;5025760;28;97530;-71
2021/01/08 07:24:48;;;;;;;0.75;0.75;;;2.60;96.50;;;7.00;76.00;101397.75;5024028;27;97808;-71
2021/01/08 07:27:19;;;;;;;0.63;0.63;;;2.60;96.50;;;6.98;76.58;101397.22;5035440;27;97916;-71
2021/01/08 07:29:51;;;;;;;1.55;0.73;;;2.60;96.50;;;6.98;76.80;101398.00;5019893;27;96756;-71
2021/01/08 07:32:35;;;;;;;1.23;1.15;;;2.60;96.50;;;7.04;76.37;101410.28;5022315;27;96656;-72
2021/01/08 07:35:23;;;;;;;0.30;0.30;;;2.60;96.50;;;6.99;76.74;101404.94;5024703;28;99585;-71
2021/01/08 07:38:05;;;;;;;0.20;0.20;;;2.60;96.50;;;7.01;76.79;101420.66;5019915;28;97694;-71
2021/01/08 07:40:36;;;;;;;0.25;0.25;;;2.60;96.50;;;6.97;76.79;101411.59;5017675;28;96883;-72
2021/01/08 07:43:07;;;;;;;0.30;0.20;;;2.60;96.50;;;6.98;77.47;101411.31;5019431;28;96893;-72
2021/01/08 07:45:53;;;;;;;0.55;0.55;;;2.60;96.50;;;6.99;76.92;101428.13;5026627;28;97891;-72
2021/01/08 07:48:26;;;;;;;0.77;0.77;;;2.60;96.80;;;7.06;77.15;101434.81;5016150;28;96712;-71
2021/01/08 07:51:03;;;;;;;0.65;0.30;;;2.60;96.50;;;7.01;77.15;101431.31;5017097;27;96662;-71
2021/01/08 07:53:46;;;;;;;0.82;0.82;;;2.60;96.50;;;7.05;77.00;101435.84;4998855;28;96966;-71
2021/01/08 07:56:18;;;;;;;0.63;0.63;;;2.70;96.60;;;7.03;76.80;101439.84;5018178;27;97845;-71
2021/01/08 07:58:58;;;;;;;0.63;0.63;;;2.60;96.50;;;7.07;76.45;101449.75;5013277;28;98830;-71
2021/01/08 08:01:27;;;;;;;1.17;0.77;;;2.70;96.50;;;7.08;77.21;101454.00;5018513;28;96646;-72
2021/01/08 08:04:00;;;;;;;0.35;0.35;;;2.70;96.50;;;7.08;76.64;101455.84;5020714;27;96883;-72
2021/01/08 08:06:35;;;;;;;1.48;1.13;;;2.70;96.50;;;7.12;76.96;101456.94;5016620;27;97876;-72
2021/01/08 08:09:08;;;;;;;0.40;0.38;;;2.70;96.50;;;7.10;77.19;101467.06;5018631;27;97224;-72
2021/01/08 08:11:36;;;;;;;0.57;0.50;;;2.70;96.80;;;7.15;77.01;101469.72;5024633;28;96617;-72
2021/01/08 08:14:18;;;;;;;1.65;0.90;;;2.70;96.50;;;7.22;76.61;101467.66;5019095;28;96880;-72
2021/01/08 08:16:47;;;;;;;1.35;0.88;;;2.70;96.50;;;7.21;76.23;101469.50;5021329;28;97355;-72
2021/01/08 08:19:18;;;;;;;1.85;0.88;;;2.80;96.50;;;7.24;76.15;101481.50;5019932;28;97485;-72
2021/01/08 08:21:49;;;;;;;1.58;1.15;;;2.80;96.50;;;7.29;76.98;101481.53;5027491;28;96710;-71
2021/01/08 08:24:18;;;;;;;1.23;1.20;;;2.80;96.50;;;7.32;76.31;101479.13;5016236;28;96891;-71
2021/01/08 08:26:50;;;;;;;0.47;0.47;;;2.80;96.50;;;7.38;75.71;101485.28;5018003;27;98224;-71
2021/01/08 08:29:21;;;;;;;0.47;0.47;;;2.80;96.50;;;7.39;75.89;101492.22;5022912;28;96742;-71
2021/01/08 08:31:51;;;;;;;0.70;0.70;;;2.80;96.40;;;7.34;76.41;101486.88;5024777;28;96819;-71
2021/01/08 08:34:29;;;;;;;1.25;1.15;;;2.80;96.40;;;7.34;75.98;101492.19;5023713;28;96905;-71
2021/01/08 08:37:06;;;;;;;9.40;2.50;;;2.80;96.40;;;7.37;75.89;101500.47;5017783;28;97619;-71
2021/01/08 08:39:34;;;;;;;0.30;0.30;;;2.90;96.40;;;7.36;76.84;101508.72;5023467;28;97795;-72
2021/01/08 08:42:04;;;;;;;0.75;0.75;;;2.90;96.40;;;7.38;76.50;101506.59;5018492;27;96638;-71
2021/01/08 08:44:42;;;;;;;0.63;0.63;;;2.90;96.40;;;7.46;76.44;101519.41;5022343;28;96680;-71
2021/01/08 08:47:15;;;;;;;1.75;0.45;;;3.00;96.70;;;7.50;76.30;101518.63;5022121;28;97037;-72
2021/01/08 08:49:44;;;;;;;0.73;0.73;;;3.00;96.40;;;7.50;76.03;101515.97;5013230;27;96670;-71
2021/01/08 08:52:12;;;;;;;1.70;0.82;;;3.00;96.30;;;7.54;76.04;101524.25;5012384;28;96892;-71
2021/01/08 08:54:39;;;;;;;0.55;0.52;;;3.00;96.30;;;7.50;76.48;101517.81;5010254;27;96710;-72
2021/01/08 08:57:09;;;;;;;19.70;1.45;;;3.10;96.30;;;7.50;76.07;101523.16;5008322;28;97794;-71
2021/01/08 08:59:46;;;;;;;1.17;0.90;;;3.10;96.30;;;7.55;77.02;101529.31;5016767;28;97619;-72
2021/01/08 09:02:25;;;;;;;1.23;1.13;;;3.10;96.30;;;7.64;75.79;101537.63;5010823;28;96732;-72
2021/01/08 09:04:56;;;;;;;3.65;1.42;;;3.20;96.30;;;7.69;76.50;101536.56;5008815;28;96907;-71
2021/01/08 09:07:34;;;;;;;0.80;0.80;;;3.20;96.20;;;7.69;75.95;101539.22;5009555;28;97159;-71
2021/01/08 09:10:14;;;;;;;0.80;0.73;;;3.20;96.20;;;7.82;75.63;101549.41;5010505;28;97100;-72
2021/01/08 09:12:49;;;;;;;0.73;0.73;;;3.30;96.20;;;7.96;75.63;101539.81;4999252;28;97388;-72
2021/01/08 09:15:29;;;;;;;0.95;0.82;;;3.30;96.20;;;7.94;75.50;101544.63;5010106;28;97246;-71
2021/01/08 09:18:11;;;;;;;4.70;1.20;;;3.30;96.10;;;7.90;75.39;101546.22;5018545;28;97780;-71
2021/01/08 09:21:08;;;;;;;0.93;0.32;;;3.30;96.10;;;8.04;75.42;101549.97;5013719;28;98458;-72
2021/01/08 09:23:43;;;;;;;0.85;0.85;;;3.40;96.10;;;8.13;75.67;101547.56;5014535;27;96921;-72
2021/01/08 09:26:17;;;;;;;0.60;0.38;;;3.50;96.10;;;8.19;75.39;101544.69;5020649;28;97009;-72
2021/01/08 09:28:50;;;;;;;0.93;0.57;;;3.50;96.00;;;8.21;75.47;101550.56;5011893;28;98028;-72
2021/01/08 09:31:23;;;;;;;0.63;0.63;;;3.50;96.00;;;8.29;74.92;101551.91;5013484;28;98241;-72
2021/01/08 09:33:56;;;;;;;3.35;1.15;;;3.60;96.00;;;8.37;75.11;101564.72;5016568;27;97183;-71
2021/01/08 09:36:32;;;;;;;0.38;0.38;;;3.70;96.00;;;8.44;74.98;101566.06;5014694;27;96911;-71
2021/01/08 09:39:04;;;;;;;0.75;0.75;;;3.70;95.90;;;8.41;75.13;101569.28;5005362;28;97703;-72
2021/01/08 09:41:34;;;;;;;0.57;0.57;;;3.80;95.90;;;8.42;75.22;101565.53;5012308;27;96764;-72
2021/01/08 09:44:06;;;;;;;2.00;1.52;;;3.80;95.90;;;8.34;75.29;101567.94;5020800;28;97482;-72
2021/01/08 09:46:55;;;;;;;1.00;1.00;;;3.80;95.90;;;8.30;75.50;101564.97;5014572;28;97219;-71
2021/01/08 09:49:24;;;;;;;2.42;1.48;;;3.80;95.90;;;8.37;75.06;101576.19;5005124;28;97308;-72
2021/01/08 09:52:03;;;;;;;0.52;0.52;;;3.80;95.90;;;8.23;75.71;101567.09;5014496;27;96803;-71
2021/01/08 09:54:46;;;;;;;0.82;0.82;;;3.70;95.80;;;8.26;75.78;101573.81;5011765;28;96822;-71
2021/01/08 09:57:27;;;;;;;0.57;0.57;;;3.70;95.80;;;8.32;75.50;101576.19;5013726;28;96855;-71
2021/01/08 10:00:00;;;;;;;1.55;0.75;;;3.80;95.80;;;8.38;75.44;101577.00;5010938;28;97228;-72
2021/01/08 10:02:42;;;;;;;2.00;0.43;;;3.80;95.80;;;8.49;75.34;101584.75;5015698;27;96812;-71
2021/01/08 10:05:26;;;;;;;0.57;0.57;;;3.80;95.80;;;8.60;75.23;101583.66;5009790;28;97242;-72
2021/01/08 10:07:56;;;;;;;0.95;0.73;;;3.90;95.80;;;8.72;75.05;101584.22;5020586;27;97059;-72
2021/01/08 10:10:42;;;;;;;0.25;0.25;;;4.00;95.80;;;8.76;74.68;101589.81;5008248;28;98152;-72
2021/01/08 10:13:22;;;;;;;0.50;0.50;;;4.00;95.80;;;8.74;75.03;101590.09;5015375;28;98448;-72
2021/01/08 10:15:53;;;;;;;2.60;2.33;;;4.00;95.70;;;8.61;75.03;101590.63;5014958;28;97239;-72
2021/01/08 10:18:27;;;;;;;0.60;0.57;;;4.00;95.70;;;8.46;75.70;101585.28;5013180;27;97026;-72
2021/01/08 10:21:05;;;;;;;0.32;0.32;;;4.00;95.70;;;8.41;75.80;101587.16;5029442;27;97844;-71
2021/01/08 10:23:42;;;;;;;0.30;0.30;;;4.00;95.70;;;8.42;75.73;101586.91;5020243;28;97061;-72
2021/01/08 10:26:13;;;;;;;0.47;0.45;;;4.00;95.80;;;8.53;75.20;101593.00;5020603;28;97857;-72
2021/01/08 10:28:50;;;;;;;1.00;0.93;;;3.90;95.80;;;8.55;75.38;101599.69;5019423;28;97330;-72
2021/01/08 10:31:24;;;;;;;0.60;0.60;;;3.90;95.80;;;8.62;75.24;101592.22;5012716;28;97286;-71
2021/01/08 10:33:53;;;;;;;0.88;0.85;;;4.00;95.80;;;8.64;75.09;101591.97;5016242;28;97754;-71
2021/01/08 10:36:21;;;;;;;4.47;2.17;;;4.00;95.80;;;8.79;74.91;101591.94;5012303;28;96884;-71
2021/01/08 10:38:49;;;;;;;1.52;1.38;;;4.00;95.80;;;8.99;74.47;101598.06;5018938;28;96784;-71
2021/01/08 10:41:17;;;;;;;0.80;0.80;;;4.10;95.70;;;8.91;74.51;101600.50;5014024;28;97864;-71
2021/01/08 10:43:46;;;;;;;0.98;0.90;;;4.10;95.70;;;8.84;74.62;101597.28;5018253;28;98752;-71
2021/01/08 10:46:14;;;;;;;0.80;0.80;;;4.20;95.70;;;8.85;75.02;101604.22;5018705;28;97325;-71